createdAt,value
2022-11-14T00:01:13.381Z,48.72
2022-11-14T00:03:40.767Z,43.42
2022-11-14T00:06:08.531Z,44.20
2022-11-14T00:08:36.321Z,42.97
2022-11-14T00:11:03.989Z,43.10
2022-11-14T00:13:31.387Z,38.28
2022-11-14T00:15:58.805Z,45.55
2022-11-14T00:18:26.344Z,40.70
2022-11-14T00:20:54.248Z,43.97
2022-11-14T00:23:22.377Z,36.58
2022-11-14T00:25:49.765Z,41.95
2022-11-14T00:28:17.172Z,37.05
2022-11-14T00:30:50.393Z,44.85
2022-11-14T00:33:20.878Z,41.30
2022-11-14T00:35:55.801Z,46.03
2022-11-14T00:38:23.983Z,45.38
2022-11-14T00:40:51.466Z,41.25
2022-11-14T00:43:18.900Z,40.40
2022-11-14T00:45:47.072Z,41.70
2022-11-14T00:48:15.153Z,45.72
2022-11-14T00:50:43.024Z,42.88
2022-11-14T00:53:10.750Z,37.30
2022-11-14T00:55:38.290Z,47.58
2022-11-14T00:58:06.132Z,44.88
2022-11-14T01:00:33.881Z,43.08
2022-11-14T01:03:01.445Z,41.92
2022-11-14T01:05:28.923Z,42.15
2022-11-14T01:07:56.315Z,47.13
2022-11-14T01:10:23.914Z,48.15
2022-11-14T01:12:51.276Z,53.40
2022-11-14T01:15:18.646Z,46.67
2022-11-14T01:17:46.004Z,44.63
2022-11-14T01:20:13.390Z,50.95
2022-11-14T01:22:40.711Z,45.92
2022-11-14T01:25:08.506Z,43.92
2022-11-14T01:27:35.965Z,44.65
2022-11-14T01:30:04.167Z,41.90
2022-11-14T01:32:31.585Z,42.28
2022-11-14T01:34:58.928Z,42.63
2022-11-14T01:37:26.341Z,40.22
2022-11-14T01:39:53.686Z,43.83
2022-11-14T01:42:24.411Z,48.20
2022-11-14T01:44:54.539Z,45.35
2022-11-14T01:47:26.516Z,39.40
2022-11-14T01:49:57.626Z,43.80
2022-11-14T01:52:26.442Z,38.28
2022-11-14T01:54:57.552Z,51.08
2022-11-14T01:59:57.060Z,41.10
2022-11-14T02:02:26.041Z,42.53
2022-11-14T02:05:06.518Z,45.15
2022-11-14T02:07:37.928Z,43.78
2022-11-14T02:10:15.414Z,42.80
2022-11-14T02:12:43.579Z,43.97
2022-11-14T02:15:11.406Z,41.38
2022-11-14T02:17:38.892Z,42.03
2022-11-14T02:20:12.467Z,41.60
2022-11-14T02:22:41.970Z,42.10
2022-11-14T02:25:12.454Z,45.20
2022-11-14T02:27:41.618Z,52.65
2022-11-14T02:30:13.748Z,44.25
2022-11-14T02:35:28.580Z,48.05
2022-11-14T02:37:56.110Z,45.30
2022-11-14T02:40:23.511Z,46.85
2022-11-14T02:42:50.889Z,45.38
2022-11-14T02:45:19.524Z,44.40
2022-11-14T02:47:47.189Z,48.25
2022-11-14T02:50:14.922Z,44.95
2022-11-14T02:52:42.373Z,46.38
2022-11-14T02:55:10.489Z,45.92
2022-11-14T02:57:37.829Z,41.90
2022-11-14T03:00:11.632Z,42.90
2022-11-14T03:02:42.121Z,46.30
2022-11-14T03:05:09.734Z,45.72
2022-11-14T03:07:37.136Z,42.17
2022-11-14T03:10:05.311Z,42.78
2022-11-14T03:12:33.055Z,47.72
2022-11-14T03:15:00.360Z,44.35
2022-11-14T03:17:31.763Z,42.38
2022-11-14T03:19:59.359Z,46.58
2022-11-14T03:22:27.533Z,45.88
2022-11-14T03:24:54.857Z,52.55
2022-11-14T03:27:22.335Z,46.85
2022-11-14T03:29:49.643Z,45.42
2022-11-14T03:32:17.095Z,55.92
2022-11-14T03:34:44.486Z,45.60
2022-11-14T03:37:11.985Z,48.20
2022-11-14T03:39:39.393Z,47.95
2022-11-14T03:42:06.848Z,47.80
2022-11-14T03:44:34.321Z,50.10
2022-11-14T03:47:01.733Z,49.58
2022-11-14T03:49:29.161Z,47.42
2022-11-14T03:51:56.522Z,52.72
2022-11-14T03:54:23.931Z,52.22
2022-11-14T03:56:51.225Z,47.92
2022-11-14T03:59:18.597Z,44.95
2022-11-14T04:01:46.079Z,44.25
2022-11-14T04:04:13.756Z,49.22
2022-11-14T04:06:41.233Z,50.63
2022-11-14T04:09:10.365Z,52.95
2022-11-14T04:11:38.131Z,53.65
2022-11-14T04:14:05.637Z,54.80
2022-11-14T04:16:33.102Z,49.35
2022-11-14T04:19:00.479Z,54.38
2022-11-14T04:21:27.889Z,61.47
2022-11-14T04:23:55.306Z,58.03
2022-11-14T04:26:22.758Z,62.40
2022-11-14T04:28:50.178Z,57.58
2022-11-14T04:31:17.534Z,63.08
2022-11-14T04:33:44.901Z,62.42
2022-11-14T04:36:12.329Z,61.03
2022-11-14T04:38:39.827Z,67.93
2022-11-14T04:41:07.328Z,68.03
2022-11-14T04:43:34.828Z,67.28
2022-11-14T04:46:02.191Z,64.35
2022-11-14T04:48:30.179Z,66.43
2022-11-14T04:50:57.836Z,66.35
2022-11-14T04:53:25.225Z,66.45
2022-11-14T04:55:52.574Z,64.82
2022-11-14T04:58:19.888Z,68.07
2022-11-14T05:00:47.454Z,65.10
2022-11-14T05:03:14.809Z,61.53
2022-11-14T05:05:42.495Z,64.47
2022-11-14T05:08:09.958Z,64.32
2022-11-14T05:10:37.382Z,58.25
2022-11-14T05:13:04.724Z,59.78
2022-11-14T05:15:32.127Z,65.85
2022-11-14T05:17:59.515Z,68.13
2022-11-14T05:20:26.879Z,60.55
2022-11-14T05:22:56.308Z,59.60
2022-11-14T05:25:23.821Z,62.72
2022-11-14T05:27:51.220Z,60.28
2022-11-14T05:30:18.865Z,60.88
2022-11-14T05:32:46.356Z,55.58
2022-11-14T05:35:13.800Z,50.47
2022-11-14T05:37:41.240Z,51.30
2022-11-14T05:40:09.229Z,53.17
2022-11-14T05:42:36.567Z,51.08
2022-11-14T05:45:04.217Z,47.90
2022-11-14T05:47:31.580Z,49.95
2022-11-14T05:49:58.882Z,49.40
2022-11-14T05:52:26.257Z,42.65
2022-11-14T05:54:53.577Z,41.30
2022-11-14T05:57:20.940Z,43.90
2022-11-14T05:59:48.325Z,46.88
2022-11-14T06:02:16.116Z,48.85
2022-11-14T06:04:43.518Z,47.47
2022-11-14T06:07:10.920Z,45.78
2022-11-14T06:09:38.485Z,50.13
2022-11-14T06:12:07.871Z,57.75
2022-11-14T06:14:35.243Z,47.95
2022-11-14T06:17:02.571Z,49.83
2022-11-14T06:19:29.903Z,53.88
2022-11-14T06:21:57.234Z,45.65
2022-11-14T06:24:24.590Z,50.78
2022-11-14T06:26:51.919Z,41.05
2022-11-14T06:29:19.239Z,40.63
2022-11-14T06:31:46.601Z,40.40
2022-11-14T06:34:14.016Z,40.70
2022-11-14T06:36:41.381Z,39.63
2022-11-14T06:39:08.806Z,46.92
2022-11-14T06:41:36.187Z,45.83
2022-11-14T06:44:03.604Z,48.63
2022-11-14T06:46:30.962Z,57.08
2022-11-14T06:48:58.351Z,55.05
2022-11-14T06:51:25.926Z,57.88
2022-11-14T06:53:53.325Z,67.65
2022-11-14T06:56:20.689Z,53.75
2022-11-14T06:58:49.575Z,45.63
2022-11-14T07:01:16.879Z,47.58
2022-11-14T07:03:45.075Z,54.63
2022-11-14T07:06:15.555Z,48.00
2022-11-14T07:08:42.946Z,56.92
2022-11-14T07:11:22.830Z,56.58
2022-11-14T07:13:52.133Z,63.63
2022-11-14T07:16:20.720Z,59.90
2022-11-14T07:18:48.041Z,63.08
2022-11-14T07:21:15.457Z,53.05
2022-11-14T07:23:43.425Z,54.33
2022-11-14T07:26:12.022Z,57.80
2022-11-14T07:28:41.933Z,52.10
2022-11-14T07:31:14.308Z,52.03
2022-11-14T07:33:42.823Z,60.15
2022-11-14T07:36:11.023Z,59.75
2022-11-14T07:38:39.288Z,45.95
2022-11-14T07:41:12.242Z,43.38
2022-11-14T07:43:40.770Z,65.15
2022-11-14T07:46:13.368Z,56.95
2022-11-14T07:48:40.921Z,40.17
2022-11-14T07:51:16.752Z,45.45
2022-11-14T07:53:44.506Z,38.67
2022-11-14T07:56:13.022Z,57.67
2022-11-14T07:58:41.769Z,54.33
2022-11-14T08:01:11.544Z,58.13
2022-11-14T08:03:45.151Z,49.28
2022-11-14T08:06:15.351Z,36.00
2022-11-14T08:08:42.883Z,67.90
2022-11-14T08:11:10.591Z,44.58
2022-11-14T08:13:37.998Z,62.55
2022-11-14T08:16:12.287Z,50.60
2022-11-14T08:18:40.748Z,49.85
2022-11-14T08:21:08.303Z,40.38
2022-11-14T08:23:35.871Z,40.63
2022-11-14T08:26:03.256Z,47.78
2022-11-14T08:28:30.997Z,48.05
2022-11-14T08:31:03.288Z,46.25
2022-11-14T08:33:31.203Z,42.83
2022-11-14T08:36:05.713Z,220.65
2022-11-14T08:38:34.376Z,56.33
2022-11-14T08:41:03.059Z,73.90
2022-11-14T08:43:32.112Z,39.38
2022-11-14T08:46:01.795Z,51.35
2022-11-14T08:48:30.922Z,40.13
2022-11-14T08:51:03.258Z,38.50
2022-11-14T08:53:31.074Z,37.88
2022-11-14T08:55:58.544Z,40.15
2022-11-14T08:58:32.157Z,46.97
2022-11-14T09:01:01.710Z,45.08
2022-11-14T09:03:29.192Z,42.65
2022-11-14T09:05:56.554Z,43.58
2022-11-14T09:08:24.351Z,38.55
2022-11-14T09:10:51.790Z,42.17
2022-11-14T09:13:19.510Z,46.42
2022-11-14T09:15:47.023Z,37.70
2022-11-14T09:18:15.310Z,46.60
2022-11-14T09:20:42.831Z,43.40
2022-11-14T09:23:10.729Z,42.35
2022-11-14T09:25:38.612Z,40.63
2022-11-14T09:28:07.258Z,42.20
2022-11-14T09:30:36.810Z,39.70
2022-11-14T09:33:11.228Z,49.35
2022-11-14T09:35:39.239Z,43.08
2022-11-14T09:38:09.500Z,41.13
2022-11-14T09:41:06.461Z,44.78
2022-11-14T09:44:20.053Z,42.05
2022-11-14T09:46:56.101Z,43.72
2022-11-14T09:49:39.530Z,43.22
2022-11-14T09:52:33.055Z,46.67
2022-11-14T09:55:09.513Z,41.92
2022-11-14T09:57:36.955Z,53.17
2022-11-14T10:00:14.109Z,47.65
2022-11-14T10:02:52.293Z,41.30
2022-11-14T10:05:41.252Z,46.92
2022-11-14T10:08:26.981Z,43.72
2022-11-14T10:11:29.425Z,46.70
2022-11-14T10:14:17.009Z,47.17
2022-11-14T10:17:12.531Z,48.83
2022-11-14T10:19:57.789Z,45.40
2022-11-14T10:22:43.526Z,35.60
2022-11-14T10:25:20.312Z,26.27
2022-11-14T10:28:06.998Z,28.73
2022-11-14T10:30:49.791Z,23.27
2022-11-14T10:33:51.040Z,29.05
2022-11-14T10:38:54.129Z,32.47
2022-11-14T10:41:49.778Z,30.98
2022-11-14T10:44:20.850Z,26.30
2022-11-14T10:46:53.958Z,22.20
2022-11-14T10:49:23.903Z,35.22
2022-11-14T10:52:02.935Z,26.95
2022-11-14T10:54:48.213Z,29.55
2022-11-14T10:57:20.730Z,25.33
2022-11-14T10:59:48.736Z,27.17
2022-11-14T11:02:16.293Z,26.45
2022-11-14T11:04:45.190Z,24.77
2022-11-14T11:07:32.616Z,28.23
2022-11-14T11:10:19.854Z,27.02
2022-11-14T11:12:50.387Z,28.10
2022-11-14T11:15:32.734Z,28.63
2022-11-14T11:18:24.289Z,26.20
2022-11-14T11:21:10.017Z,24.75
2022-11-14T11:23:57.506Z,28.95
2022-11-14T11:26:30.806Z,28.92
2022-11-14T11:29:18.329Z,34.55
2022-11-14T11:31:58.233Z,30.65
2022-11-14T11:34:28.161Z,29.95
2022-11-14T11:40:06.978Z,30.10
2022-11-14T11:43:31.829Z,30.15
2022-11-14T11:45:29.047Z,28.60
2022-11-14T11:48:06.675Z,30.27
2022-11-14T11:50:34.217Z,29.13
2022-11-14T11:53:27.738Z,34.00
2022-11-14T11:56:00.998Z,28.88
2022-11-14T11:58:55.121Z,37.90
2022-11-14T12:01:22.574Z,26.30
2022-11-14T12:03:52.444Z,29.50
2022-11-14T12:06:24.953Z,28.30
2022-11-14T12:09:18.095Z,28.70
2022-11-14T12:11:57.662Z,29.40
2022-11-14T12:14:46.672Z,28.45
2022-11-14T12:17:28.782Z,27.25
2022-11-14T12:20:19.945Z,23.58
2022-11-14T12:25:56.086Z,36.40
2022-11-14T12:28:35.495Z,28.17
2022-11-14T12:31:06.513Z,29.95
2022-11-14T12:36:09.972Z,31.92
2022-11-14T12:41:27.026Z,32.90
2022-11-14T12:44:29.220Z,28.00
2022-11-14T12:47:05.701Z,34.17
2022-11-14T12:49:39.376Z,35.25
2022-11-14T12:52:44.893Z,27.27
2022-11-14T12:55:24.328Z,32.42
2022-11-14T12:58:18.917Z,30.05
2022-11-14T13:00:46.280Z,37.78
2022-11-14T13:03:48.079Z,31.02
2022-11-14T13:06:25.175Z,28.05
2022-11-14T13:09:29.929Z,33.58
2022-11-14T13:12:16.176Z,38.72
2022-11-14T13:15:16.299Z,29.48
2022-11-14T13:18:02.289Z,31.13
2022-11-14T13:20:52.123Z,36.28
2022-11-14T13:23:25.545Z,57.60
2022-11-14T13:26:11.103Z,77.13
2022-11-14T13:28:38.465Z,51.58
2022-11-14T13:31:15.889Z,72.88
2022-11-14T13:33:45.464Z,41.25
2022-11-14T13:36:39.999Z,33.00
2022-11-14T13:39:10.130Z,42.22
2022-11-14T13:42:04.949Z,32.67
2022-11-14T13:45:00.054Z,35.42
2022-11-14T13:48:24.881Z,32.63
2022-11-14T13:51:15.291Z,29.48
2022-11-14T13:53:46.882Z,49.33
2022-11-14T13:57:02.585Z,28.67
2022-11-14T13:59:46.683Z,31.00
2022-11-14T14:02:31.059Z,31.45
2022-11-14T14:05:27.682Z,30.40
2022-11-14T14:08:10.901Z,32.15
2022-11-14T14:10:47.314Z,28.15
2022-11-14T14:13:43.527Z,31.92
2022-11-14T14:16:33.653Z,43.83
2022-11-14T14:19:43.205Z,41.97
2022-11-14T14:22:19.137Z,48.53
2022-11-14T14:25:01.180Z,66.88
2022-11-14T14:27:36.938Z,48.25
2022-11-14T14:30:13.931Z,79.95
2022-11-14T14:32:41.476Z,55.15
2022-11-14T14:35:27.960Z,83.97
2022-11-14T14:37:56.850Z,41.58
2022-11-14T14:40:28.714Z,42.90
2022-11-14T14:42:59.711Z,29.95
2022-11-14T14:48:14.504Z,50.17
2022-11-14T14:50:49.124Z,53.95
2022-11-14T14:53:25.751Z,60.88
2022-11-14T14:55:59.107Z,43.55
2022-11-14T14:58:31.729Z,35.05
2022-11-14T15:01:04.182Z,30.38
2022-11-14T15:03:39.779Z,37.40
2022-11-14T15:06:33.032Z,36.05
2022-11-14T15:09:08.671Z,33.92
2022-11-14T15:11:39.563Z,31.15
2022-11-14T15:14:10.759Z,39.67
2022-11-14T15:16:38.571Z,32.92
2022-11-14T15:19:06.499Z,37.10
2022-11-14T15:21:34.052Z,35.90
2022-11-14T15:24:03.051Z,40.45
2022-11-14T15:26:31.716Z,34.35
2022-11-14T15:29:18.726Z,29.95
2022-11-14T15:31:52.325Z,31.60
2022-11-14T15:34:40.553Z,34.30
2022-11-14T15:37:10.858Z,32.03
2022-11-14T15:39:38.485Z,36.05
2022-11-14T15:42:24.849Z,29.73
2022-11-14T15:44:52.482Z,39.53
2022-11-14T15:47:25.704Z,34.35
2022-11-14T15:49:57.364Z,40.08
2022-11-14T15:52:36.356Z,38.70
2022-11-14T15:55:09.390Z,33.22
2022-11-14T15:57:37.628Z,37.22
2022-11-14T16:00:05.694Z,35.13
2022-11-14T16:02:34.703Z,36.15
2022-11-14T16:05:04.212Z,34.28
2022-11-14T16:07:31.679Z,36.05
2022-11-14T16:09:59.050Z,34.75
2022-11-14T16:12:26.486Z,36.10
2022-11-14T16:14:53.847Z,34.80
2022-11-14T16:17:21.164Z,41.00
2022-11-14T16:19:48.545Z,35.15
2022-11-14T16:22:17.799Z,37.95
2022-11-14T16:24:45.159Z,37.03
2022-11-14T16:27:12.698Z,45.05
2022-11-14T16:29:40.344Z,37.60
2022-11-14T16:32:10.987Z,39.50
2022-11-14T16:34:38.367Z,46.10
2022-11-14T16:37:06.026Z,43.58
2022-11-14T16:39:33.403Z,42.60
2022-11-14T16:42:04.162Z,41.17
2022-11-14T16:44:37.233Z,37.63
2022-11-14T16:47:08.541Z,45.97
2022-11-14T16:49:35.967Z,50.17
2022-11-14T16:52:07.126Z,40.85
2022-11-14T16:54:34.808Z,44.50
2022-11-14T16:57:02.189Z,46.70
2022-11-14T16:59:29.879Z,40.42
2022-11-14T17:01:57.233Z,41.78
2022-11-14T17:04:24.696Z,45.38
2022-11-14T17:06:52.112Z,40.95
2022-11-14T17:09:21.411Z,40.20
2022-11-14T17:11:48.806Z,44.85
2022-11-14T17:14:17.387Z,40.70
2022-11-14T17:16:46.564Z,46.50
2022-11-14T17:19:14.233Z,48.45
2022-11-14T17:21:41.625Z,44.80
2022-11-14T17:24:09.222Z,38.30
2022-11-14T17:26:36.837Z,41.05
2022-11-14T17:29:04.742Z,48.22
2022-11-14T17:31:37.582Z,47.88
2022-11-14T17:34:09.314Z,41.13
2022-11-14T17:36:36.727Z,49.30
2022-11-14T17:39:04.290Z,41.60
2022-11-14T17:41:32.496Z,46.90
2022-11-14T17:44:02.545Z,39.40
2022-11-14T17:46:30.913Z,39.30
2022-11-14T17:48:59.070Z,49.10
2022-11-14T17:51:26.755Z,43.47
2022-11-14T17:53:54.177Z,39.53
2022-11-14T17:56:24.602Z,43.72
2022-11-14T17:58:53.330Z,42.08
2022-11-14T18:01:24.174Z,41.63
2022-11-14T18:03:51.808Z,46.10
2022-11-14T18:06:20.752Z,45.47
2022-11-14T18:08:48.577Z,42.60
2022-11-14T18:11:17.454Z,39.42
2022-11-14T18:13:44.805Z,44.65
2022-11-14T18:16:19.609Z,45.90
2022-11-14T18:18:47.374Z,42.58
2022-11-14T18:21:17.958Z,38.90
2022-11-14T18:23:54.208Z,42.90
2022-11-14T18:26:27.597Z,46.20
2022-11-14T18:29:00.778Z,46.30
2022-11-14T18:31:37.334Z,50.03
2022-11-14T18:34:05.355Z,43.95
2022-11-14T18:36:32.793Z,51.65
2022-11-14T18:39:00.134Z,46.55
2022-11-14T18:41:27.536Z,40.90
2022-11-14T18:43:55.803Z,48.05
2022-11-14T18:46:25.230Z,52.03
2022-11-14T18:48:55.775Z,50.22
2022-11-14T18:51:25.722Z,53.70
2022-11-14T18:53:55.296Z,47.13
2022-11-14T18:56:25.421Z,43.42
2022-11-14T18:58:55.448Z,45.53
2022-11-14T19:01:26.345Z,38.33
2022-11-14T19:04:02.068Z,31.90
2022-11-14T19:06:34.710Z,34.80
2022-11-14T19:09:11.177Z,25.48
2022-11-14T19:11:57.994Z,25.52
2022-11-14T19:14:25.440Z,31.65
2022-11-14T19:16:53.021Z,24.48
2022-11-14T19:19:20.474Z,24.35
2022-11-14T19:21:51.395Z,25.83
2022-11-14T19:24:19.234Z,35.92
2022-11-14T19:26:46.865Z,33.80
2022-11-14T19:29:14.314Z,30.98
2022-11-14T19:31:42.838Z,25.20
2022-11-14T19:34:10.673Z,30.63
2022-11-14T19:36:59.016Z,28.50
2022-11-14T19:39:26.440Z,29.58
2022-11-14T19:41:53.840Z,34.03
2022-11-14T19:44:21.221Z,31.80
2022-11-14T19:46:48.586Z,33.25
2022-11-14T19:49:16.543Z,34.58
2022-11-14T19:51:43.935Z,29.40
2022-11-14T19:54:11.749Z,34.83
2022-11-14T19:56:39.094Z,33.90
2022-11-14T20:01:46.250Z,27.67
2022-11-14T20:04:13.775Z,25.85
2022-11-14T20:06:41.718Z,34.80
2022-11-14T20:09:10.395Z,26.70
2022-11-14T20:11:38.131Z,26.40
2022-11-14T20:14:06.128Z,22.50
2022-11-14T20:16:36.431Z,25.25
2022-11-14T20:19:04.375Z,23.58
2022-11-14T20:21:33.999Z,22.75
2022-11-14T20:24:01.846Z,26.02
2022-11-14T20:26:29.304Z,18.73
2022-11-14T20:28:56.869Z,19.52
2022-11-14T20:31:27.253Z,20.52
2022-11-14T20:33:55.748Z,19.90
2022-11-14T20:36:26.073Z,18.40
2022-11-14T20:38:54.229Z,18.00
2022-11-14T20:41:22.051Z,14.80
2022-11-14T20:43:49.472Z,19.77
2022-11-14T20:46:20.093Z,16.45
2022-11-14T20:48:48.418Z,16.35
2022-11-14T20:51:21.385Z,15.77
2022-11-14T20:53:50.318Z,15.15
2022-11-14T20:56:17.836Z,14.27
2022-11-14T20:58:47.494Z,11.45
2022-11-14T21:01:16.354Z,14.23
2022-11-14T21:03:43.847Z,12.35
2022-11-14T21:06:13.657Z,11.60
2022-11-14T21:08:43.648Z,11.82
2022-11-14T21:11:18.070Z,8.63
2022-11-14T21:13:58.551Z,7.00
2022-11-14T21:16:39.486Z,7.43
2022-11-14T21:19:07.581Z,5.57
2022-11-14T21:21:36.713Z,6.88
2022-11-14T21:24:04.337Z,6.55
2022-11-14T21:26:38.357Z,6.30
2022-11-14T21:29:10.171Z,8.43
2022-11-14T21:31:41.540Z,5.20
2022-11-14T21:34:14.017Z,6.40
2022-11-14T21:36:46.387Z,4.65
2022-11-14T21:39:16.392Z,6.78
2022-11-14T21:41:45.346Z,5.15
2022-11-14T21:44:14.675Z,4.18
2022-11-14T21:46:43.393Z,8.40
2022-11-14T21:49:11.162Z,5.95
2022-11-14T21:51:38.520Z,4.50
2022-11-14T21:54:07.359Z,4.32
2022-11-14T21:56:37.195Z,3.75
2022-11-14T21:59:15.147Z,4.38
2022-11-14T22:02:04.555Z,3.80
2022-11-14T22:04:32.922Z,4.10
2022-11-14T22:07:03.393Z,3.72
2022-11-14T22:09:31.210Z,5.80
2022-11-14T22:11:59.377Z,5.40
2022-11-14T22:14:27.294Z,3.25
2022-11-14T22:16:54.742Z,4.60
2022-11-14T22:19:22.184Z,4.50
2022-11-14T22:21:49.662Z,6.45
2022-11-14T22:24:17.074Z,3.50
2022-11-14T22:26:44.447Z,4.72
2022-11-14T22:29:11.796Z,4.50
2022-11-14T22:31:39.173Z,5.68
2022-11-14T22:34:06.913Z,6.55
2022-11-14T22:36:34.366Z,5.38
2022-11-14T22:39:01.795Z,2.05
2022-11-14T22:41:33.450Z,6.25
2022-11-14T22:44:02.274Z,3.53
2022-11-14T22:46:30.020Z,4.20
2022-11-14T22:48:58.333Z,6.90
2022-11-14T22:51:27.201Z,5.63
2022-11-14T22:53:56.785Z,6.38
2022-11-14T22:56:28.844Z,3.85
2022-11-14T22:58:58.753Z,3.30
2022-11-14T23:01:31.598Z,8.18
2022-11-14T23:04:05.415Z,4.45
2022-11-14T23:06:34.090Z,5.93
2022-11-14T23:09:02.514Z,8.35
2022-11-14T23:11:31.168Z,3.22
2022-11-14T23:13:59.584Z,3.63
2022-11-14T23:16:29.123Z,5.45
2022-11-14T23:19:14.599Z,5.55
2022-11-14T23:21:41.380Z,3.00
2022-11-14T23:24:22.999Z,9.38
2022-11-14T23:26:50.349Z,8.18
2022-11-14T23:29:17.746Z,9.57
2022-11-14T23:31:45.223Z,5.82
2022-11-14T23:34:12.633Z,8.32
2022-11-14T23:36:40.102Z,6.03
2022-11-14T23:39:07.532Z,8.00
2022-11-14T23:41:34.913Z,5.10
2022-11-14T23:44:02.392Z,3.58
2022-11-14T23:46:29.775Z,5.30
2022-11-14T23:48:57.256Z,9.57
2022-11-14T23:51:24.845Z,4.50
2022-11-14T23:53:52.440Z,8.15
2022-11-14T23:56:20.055Z,7.72
2022-11-14T23:58:47.658Z,7.35
